createdAt,value
2022-12-28T00:02:23.956Z,101363.22
2022-12-28T00:04:52.097Z,101369.88
2022-12-28T00:07:20.541Z,101377.47
2022-12-28T00:09:52.338Z,101366.03
2022-12-28T00:12:21.343Z,101363.34
2022-12-28T00:14:50.856Z,101358.19
2022-12-28T00:17:22.467Z,101355.94
2022-12-28T00:19:50.719Z,101349.44
2022-12-28T00:22:19.176Z,101340.19
2022-12-28T00:24:47.132Z,101341.44
2022-12-28T00:27:16.149Z,101337.88
2022-12-28T00:29:44.749Z,101329.22
2022-12-28T00:32:14.785Z,101330.25
2022-12-28T00:34:43.126Z,101324.56
2022-12-28T00:37:13.277Z,101321.13
2022-12-28T00:39:42.183Z,101319.88
2022-12-28T00:42:10.874Z,101317.88
2022-12-28T00:44:38.907Z,101313.97
2022-12-28T00:47:07.042Z,101304.25
2022-12-28T00:49:37.012Z,101293.28
2022-12-28T00:52:06.638Z,101287.25
2022-12-28T00:54:35.835Z,101288.31
2022-12-28T00:57:05.193Z,101278.88
2022-12-28T00:59:35.885Z,101279.19
2022-12-28T01:02:04.140Z,101255.56
2022-12-28T01:04:33.163Z,101252.53
2022-12-28T01:07:02.585Z,101246.59
2022-12-28T01:09:32.661Z,101249.31
2022-12-28T01:12:01.789Z,101239.81
2022-12-28T01:14:31.199Z,101234.06
2022-12-28T01:17:00.748Z,101231.84
2022-12-28T01:19:30.126Z,101229.31
2022-12-28T01:22:00.022Z,101221.38
2022-12-28T01:24:29.723Z,101229.16
2022-12-28T01:27:02.920Z,101225.19
2022-12-28T01:29:32.725Z,101225.19
2022-12-28T01:32:00.755Z,101217.47
2022-12-28T01:34:30.990Z,101207.00
2022-12-28T01:36:59.085Z,101207.78
2022-12-28T01:39:30.393Z,101193.63
2022-12-28T01:41:59.001Z,101186.19
2022-12-28T01:44:40.408Z,101178.47
2022-12-28T01:47:10.826Z,101198.19
2022-12-28T01:49:43.458Z,101197.22
2022-12-28T01:52:15.747Z,101196.03
2022-12-28T01:54:47.851Z,101194.28
2022-12-28T01:57:16.803Z,101181.84
2022-12-28T01:59:49.093Z,101175.13
2022-12-28T02:02:22.577Z,101163.63
2022-12-28T02:04:51.463Z,101156.94
2022-12-28T02:07:25.147Z,101155.19
2022-12-28T02:10:43.490Z,101148.00
2022-12-28T02:12:45.623Z,101141.72
2022-12-28T02:15:17.079Z,101132.00
2022-12-28T02:17:49.653Z,101127.78
2022-12-28T02:20:18.127Z,101140.00
2022-12-28T02:22:53.275Z,101142.53
2022-12-28T02:25:36.337Z,101145.78
2022-12-28T02:28:11.317Z,101144.28
2022-12-28T02:30:44.505Z,101153.03
2022-12-28T02:33:18.510Z,101149.53
2022-12-28T02:35:50.236Z,101137.78
2022-12-28T02:38:22.043Z,101134.28
2022-12-28T02:40:52.233Z,101150.78
2022-12-28T02:43:20.707Z,101138.78
2022-12-28T02:46:08.895Z,101135.53
2022-12-28T02:48:59.145Z,101142.28
2022-12-28T02:51:43.653Z,101137.25
2022-12-28T02:54:44.399Z,101133.78
2022-12-28T02:57:20.027Z,101140.00
2022-12-28T02:59:54.002Z,101122.75
2022-12-28T03:02:35.283Z,101120.31
2022-12-28T03:05:40.631Z,101108.06
2022-12-28T03:08:20.120Z,101112.03
2022-12-28T03:10:53.391Z,101113.81
2022-12-28T03:13:41.558Z,101113.28
2022-12-28T03:16:16.570Z,101098.56
2022-12-28T03:19:08.331Z,101105.06
2022-12-28T03:21:55.158Z,101102.31
2022-12-28T03:24:41.677Z,101112.31
2022-12-28T03:27:31.777Z,101101.81
2022-12-28T03:30:20.223Z,101089.81
2022-12-28T03:32:51.533Z,101086.09
2022-12-28T03:35:27.636Z,101073.59
2022-12-28T03:37:59.635Z,101072.84
2022-12-28T03:40:34.352Z,101069.34
2022-12-28T03:43:23.002Z,101069.09
2022-12-28T03:45:56.583Z,101067.59
2022-12-28T03:48:26.238Z,101066.84
2022-12-28T03:50:56.424Z,101066.09
2022-12-28T03:53:27.981Z,101045.88
2022-12-28T03:56:11.985Z,101051.34
2022-12-28T03:58:41.090Z,101047.88
2022-12-28T04:01:10.973Z,101042.88
2022-12-28T04:03:43.642Z,101040.63
2022-12-28T04:06:16.768Z,101033.91
2022-12-28T04:08:45.934Z,101031.41
2022-12-28T04:11:14.664Z,101022.16
2022-12-28T04:13:45.783Z,101025.41
2022-12-28T04:16:16.685Z,101019.41
2022-12-28T04:18:45.657Z,101023.91
2022-12-28T04:21:17.007Z,101021.41
2022-12-28T04:23:46.575Z,101014.41
2022-12-28T04:26:21.691Z,101010.41
2022-12-28T04:28:53.267Z,101014.41
2022-12-28T04:31:51.011Z,101013.41
2022-12-28T04:34:21.878Z,101023.41
2022-12-28T04:37:02.284Z,101012.91
2022-12-28T04:39:55.374Z,101013.16
2022-12-28T04:42:19.069Z,101019.41
2022-12-28T04:44:47.110Z,101010.41
2022-12-28T04:47:15.391Z,101016.16
2022-12-28T04:49:43.384Z,101014.16
2022-12-28T04:52:12.939Z,101007.41
2022-12-28T04:54:43.813Z,101009.88
2022-12-28T04:57:12.177Z,101021.88
2022-12-28T04:59:40.856Z,101008.13
2022-12-28T05:02:09.905Z,101008.38
2022-12-28T05:04:38.206Z,101005.16
2022-12-28T05:07:06.337Z,101008.41
2022-12-28T05:09:37.187Z,101008.13
2022-12-28T05:12:05.600Z,101002.66
2022-12-28T05:14:37.155Z,101003.41
2022-12-28T05:17:08.339Z,100992.41
2022-12-28T05:19:37.643Z,100981.19
2022-12-28T05:22:19.329Z,100979.41
2022-12-28T05:24:48.704Z,100987.66
2022-12-28T05:27:16.993Z,100982.19
2022-12-28T05:29:45.829Z,100972.44
2022-12-28T05:32:14.073Z,100975.16
2022-12-28T05:34:44.573Z,100961.19
2022-12-28T05:37:18.510Z,100968.19
2022-12-28T05:39:51.291Z,100963.41
2022-12-28T05:42:19.339Z,100960.91
2022-12-28T05:44:47.590Z,100959.19
2022-12-28T05:47:15.627Z,100957.69
2022-12-28T05:49:43.633Z,100966.94
2022-12-28T05:52:11.676Z,100956.38
2022-12-28T05:54:41.182Z,100963.63
2022-12-28T05:57:12.609Z,100944.66
2022-12-28T05:59:40.945Z,100950.44
2022-12-28T06:02:12.871Z,100936.16
2022-12-28T06:04:41.559Z,100940.66
2022-12-28T06:07:09.855Z,100948.91
2022-12-28T06:09:38.120Z,100941.16
2022-12-28T06:12:06.974Z,100944.41
2022-12-28T06:14:36.483Z,100947.16
2022-12-28T06:17:04.586Z,100946.16
2022-12-28T06:19:32.882Z,100946.13
2022-12-28T06:22:01.092Z,100943.88
2022-12-28T06:24:30.604Z,100940.66
2022-12-28T06:26:58.524Z,100936.91
2022-12-28T06:29:28.249Z,100935.16
2022-12-28T06:32:00.719Z,100929.16
2022-12-28T06:34:30.964Z,100933.88
2022-12-28T06:37:00.488Z,100930.34
2022-12-28T06:39:31.881Z,100925.38
2022-12-28T06:42:00.310Z,100925.09
2022-12-28T06:44:28.575Z,100916.59
2022-12-28T06:46:58.161Z,100909.38
2022-12-28T06:49:27.165Z,100912.34
2022-12-28T06:51:55.175Z,100903.09
2022-12-28T06:54:24.621Z,100903.81
2022-12-28T06:56:52.555Z,100896.34
2022-12-28T06:59:21.074Z,100900.81
2022-12-28T07:02:01.238Z,100907.06
2022-12-28T07:04:30.995Z,100908.59
2022-12-28T07:06:59.158Z,100905.53
2022-12-28T07:09:27.125Z,100901.03
2022-12-28T07:11:55.336Z,100903.28
2022-12-28T07:14:23.274Z,100907.78
2022-12-28T07:16:51.477Z,100912.78
2022-12-28T07:19:19.646Z,100902.25
2022-12-28T07:21:50.561Z,100908.03
2022-12-28T07:24:19.137Z,100898.81
2022-12-28T07:26:47.662Z,100911.56
2022-12-28T07:29:16.357Z,100903.75
2022-12-28T07:31:46.040Z,100906.97
2022-12-28T07:34:14.588Z,100901.47
2022-12-28T07:36:44.079Z,100901.72
2022-12-28T07:39:13.475Z,100907.50
2022-12-28T07:41:41.517Z,100904.44
2022-12-28T07:44:11.451Z,100898.44
2022-12-28T07:46:39.494Z,100901.41
2022-12-28T07:49:08.424Z,100895.69
2022-12-28T07:51:37.422Z,100892.66
2022-12-28T07:54:07.176Z,100893.63
2022-12-28T07:59:05.143Z,100886.78
2022-12-28T08:01:35.394Z,100869.72
2022-12-28T08:04:04.944Z,100866.53
2022-12-28T08:06:35.375Z,100868.50
2022-12-28T08:09:03.799Z,100861.78
2022-12-28T08:11:33.280Z,100864.03
2022-12-28T08:14:03.546Z,100864.94
2022-12-28T08:16:33.679Z,100860.38
2022-12-28T08:19:02.519Z,100863.13
2022-12-28T08:21:32.024Z,100864.41
2022-12-28T08:24:00.639Z,100868.38
2022-12-28T08:26:30.286Z,100865.09
2022-12-28T08:29:00.616Z,100873.06
2022-12-28T08:31:30.979Z,100866.59
2022-12-28T08:34:02.340Z,100873.31
2022-12-28T08:36:31.071Z,100861.69
2022-12-28T08:38:59.394Z,100863.47
2022-12-28T08:41:28.662Z,100853.84
2022-12-28T08:43:59.011Z,100864.06
2022-12-28T08:46:28.017Z,100856.06
2022-12-28T08:49:00.490Z,100855.41
2022-12-28T08:51:31.045Z,100859.41
2022-12-28T08:54:01.094Z,100849.31
2022-12-28T08:56:30.680Z,100856.31
2022-12-28T08:58:59.883Z,100862.88
2022-12-28T09:01:29.029Z,100855.84
2022-12-28T09:03:59.911Z,100855.28
2022-12-28T09:06:30.445Z,100862.22
2022-12-28T09:09:07.293Z,100864.47
2022-12-28T09:11:36.219Z,100857.91
2022-12-28T09:14:05.383Z,100861.09
2022-12-28T09:16:33.968Z,100858.16
2022-12-28T09:19:05.359Z,100853.69
2022-12-28T09:21:35.087Z,100854.38
2022-12-28T09:24:03.094Z,100842.69
2022-12-28T09:26:32.372Z,100846.53
2022-12-28T09:29:01.731Z,100840.06
2022-12-28T09:31:33.614Z,100836.09
2022-12-28T09:36:51.797Z,100839.31
2022-12-28T09:39:24.399Z,100832.53
2022-12-28T09:41:55.132Z,100831.72
2022-12-28T09:44:45.164Z,100823.75
2022-12-28T09:47:18.019Z,100827.47
2022-12-28T09:49:47.650Z,100822.63
2022-12-28T09:52:25.359Z,100818.19
2022-12-28T09:54:55.026Z,100822.50
2022-12-28T09:57:24.573Z,100819.66
2022-12-28T09:59:53.379Z,100811.25
2022-12-28T10:02:29.070Z,100813.16
2022-12-28T10:04:59.597Z,100819.25
2022-12-28T10:07:28.994Z,100812.66
2022-12-28T10:09:57.826Z,100820.41
2022-12-28T10:12:26.368Z,100814.06
2022-12-28T10:14:54.921Z,100812.28
2022-12-28T10:17:26.684Z,100822.59
2022-12-28T10:19:57.804Z,100824.91
2022-12-28T10:22:40.650Z,100813.88
2022-12-28T10:25:18.970Z,100810.72
2022-12-28T10:27:47.033Z,100794.09
2022-12-28T10:30:17.116Z,100800.56
2022-12-28T10:32:49.935Z,100793.75
2022-12-28T10:35:23.181Z,100794.94
2022-12-28T10:37:58.642Z,100786.09
2022-12-28T10:40:28.234Z,100786.22
2022-12-28T10:42:58.330Z,100792.09
2022-12-28T10:45:33.712Z,100778.06
2022-12-28T10:48:02.954Z,100775.50
2022-12-28T10:50:52.396Z,100779.31
2022-12-28T10:53:24.752Z,100765.91
2022-12-28T10:56:06.328Z,100764.44
2022-12-28T10:58:35.995Z,100763.06
2022-12-28T11:01:07.370Z,100759.34
2022-12-28T11:03:37.100Z,100753.28
2022-12-28T11:06:09.765Z,100743.47
2022-12-28T11:08:39.994Z,100743.56
2022-12-28T11:11:08.908Z,100746.22
2022-12-28T11:13:38.473Z,100735.19
2022-12-28T11:16:07.993Z,100735.41
2022-12-28T11:18:38.052Z,100726.88
2022-12-28T11:21:07.452Z,100722.09
2022-12-28T11:23:35.657Z,100726.88
2022-12-28T11:26:05.748Z,100730.59
2022-12-28T11:28:33.781Z,100718.91
2022-12-28T11:31:01.860Z,100718.25
2022-12-28T11:33:33.533Z,100710.69
2022-12-28T11:36:06.978Z,100702.47
2022-12-28T11:38:40.352Z,100697.41
2022-12-28T11:41:14.671Z,100697.72
2022-12-28T11:43:53.181Z,100694.38
2022-12-28T11:46:43.313Z,100696.13
2022-12-28T11:49:26.939Z,100683.13
2022-12-28T11:52:14.117Z,100677.41
2022-12-28T11:54:51.614Z,100680.66
2022-12-28T11:57:35.270Z,100678.09
2022-12-28T12:00:23.852Z,100679.66
2022-12-28T12:02:56.582Z,100684.19
2022-12-28T12:05:48.664Z,100667.59
2022-12-28T12:08:35.160Z,100656.94
2022-12-28T12:11:29.676Z,100653.81
2022-12-28T12:14:00.021Z,100647.69
2022-12-28T12:16:31.874Z,100634.28
2022-12-28T12:19:02.006Z,100644.41
2022-12-28T12:21:35.229Z,100633.13
2022-12-28T12:24:14.509Z,100633.97
2022-12-28T12:26:47.132Z,100624.72
2022-12-28T12:29:16.872Z,100618.56
2022-12-28T12:31:47.899Z,100617.13
2022-12-28T12:34:23.046Z,100615.84
2022-12-28T12:37:13.601Z,100603.13
2022-12-28T12:39:59.630Z,100607.28
2022-12-28T12:42:31.035Z,100590.75
2022-12-28T12:45:04.193Z,100600.25
2022-12-28T12:47:51.170Z,100596.66
2022-12-28T12:50:40.283Z,100586.69
2022-12-28T12:53:20.122Z,100582.09
2022-12-28T12:55:54.061Z,100582.63
2022-12-28T12:58:26.082Z,100584.25
2022-12-28T13:01:09.669Z,100583.50
2022-12-28T13:03:42.083Z,100577.09
2022-12-28T13:06:16.221Z,100577.72
2022-12-28T13:08:48.930Z,100575.97
2022-12-28T13:11:17.434Z,100572.41
2022-12-28T13:13:49.353Z,100572.19
2022-12-28T13:16:19.011Z,100570.91
2022-12-28T13:18:55.459Z,100572.34
2022-12-28T13:21:24.879Z,100563.63
2022-12-28T13:23:56.535Z,100557.38
2022-12-28T13:26:27.501Z,100552.38
2022-12-28T13:28:58.655Z,100553.25
2022-12-28T13:31:32.669Z,100552.03
2022-12-28T13:34:02.530Z,100545.38
2022-12-28T13:36:31.774Z,100548.25
2022-12-28T13:39:12.322Z,100536.53
2022-12-28T13:41:44.814Z,100531.94
2022-12-28T13:44:37.887Z,100528.84
2022-12-28T13:47:10.048Z,100521.38
2022-12-28T13:49:41.992Z,100513.81
2022-12-28T13:52:13.646Z,100503.06
2022-12-28T13:54:46.115Z,100500.09
2022-12-28T13:57:45.404Z,100508.59
2022-12-28T14:00:04.918Z,100507.78
2022-12-28T14:02:35.679Z,100502.75
2022-12-28T14:05:04.166Z,100500.31
2022-12-28T14:07:32.516Z,100492.22
2022-12-28T14:10:04.289Z,100493.34
2022-12-28T14:12:32.845Z,100493.34
2022-12-28T14:15:03.818Z,100484.88
2022-12-28T14:17:33.886Z,100484.88
2022-12-28T14:20:02.310Z,100481.34
2022-12-28T14:22:36.132Z,100483.38
2022-12-28T14:25:07.389Z,100479.72
2022-12-28T14:27:37.899Z,100482.13
2022-12-28T14:30:07.892Z,100471.31
2022-12-28T14:32:42.618Z,100470.75
2022-12-28T14:35:17.783Z,100470.00
2022-12-28T14:37:47.683Z,100463.38
2022-12-28T14:40:25.377Z,100472.31
2022-12-28T14:42:54.443Z,100461.59
2022-12-28T14:45:23.267Z,100466.88
2022-12-28T14:47:55.484Z,100461.56
2022-12-28T14:50:25.833Z,100458.41
2022-12-28T14:53:04.965Z,100459.91
2022-12-28T14:55:35.794Z,100457.53
2022-12-28T14:58:06.557Z,100453.84
2022-12-28T15:00:36.024Z,100450.34
2022-12-28T15:03:18.035Z,100455.69
2022-12-28T15:05:47.619Z,100450.50
2022-12-28T15:08:15.725Z,100449.72
2022-12-28T15:10:48.968Z,100441.38
2022-12-28T15:13:18.490Z,100434.88
2022-12-28T15:15:54.110Z,100433.81
2022-12-28T15:18:23.897Z,100440.69
2022-12-28T15:20:52.389Z,100451.53
2022-12-28T15:23:21.132Z,100440.41
2022-12-28T15:25:54.244Z,100437.88
2022-12-28T15:28:28.194Z,100436.28
2022-12-28T15:30:57.441Z,100431.88
2022-12-28T15:33:25.780Z,100428.59
2022-12-28T15:36:02.545Z,100423.06
2022-12-28T15:38:33.884Z,100429.16
2022-12-28T15:41:04.438Z,100422.84
2022-12-28T15:43:33.088Z,100421.97
2022-12-28T15:46:01.399Z,100413.88
2022-12-28T15:48:31.637Z,100411.03
2022-12-28T15:50:59.949Z,100405.13
2022-12-28T15:53:29.757Z,100411.50
2022-12-28T15:56:01.624Z,100406.34
2022-12-28T15:58:31.927Z,100410.66
2022-12-28T16:01:01.282Z,100392.72
2022-12-28T16:03:35.562Z,100388.06
2022-12-28T16:06:05.982Z,100383.06
2022-12-28T16:08:34.319Z,100373.88
2022-12-28T16:11:08.817Z,100385.69
2022-12-28T16:13:39.190Z,100370.22
2022-12-28T16:16:08.520Z,100373.16
2022-12-28T16:18:39.145Z,100378.66
2022-12-28T16:21:08.309Z,100374.28
2022-12-28T16:23:37.876Z,100374.25
2022-12-28T16:26:06.990Z,100368.09
2022-12-28T16:28:36.116Z,100372.31
2022-12-28T16:31:07.261Z,100370.81
2022-12-28T16:33:37.695Z,100367.13
2022-12-28T16:36:12.350Z,100370.81
2022-12-28T16:38:41.603Z,100365.44
2022-12-28T16:41:12.431Z,100374.09
2022-12-28T16:43:44.629Z,100374.88
2022-12-28T16:46:15.420Z,100367.63
2022-12-28T16:48:44.049Z,100366.28
2022-12-28T16:51:13.393Z,100379.41
2022-12-28T16:53:41.582Z,100380.88
2022-12-28T16:56:11.103Z,100376.03
2022-12-28T16:58:39.307Z,100376.28
2022-12-28T17:01:08.967Z,100375.56
2022-12-28T17:03:40.104Z,100372.22
2022-12-28T17:06:08.985Z,100363.78
2022-12-28T17:08:37.412Z,100368.41
2022-12-28T17:11:08.459Z,100372.06
2022-12-28T17:13:39.516Z,100371.22
2022-12-28T17:16:10.231Z,100373.09
2022-12-28T17:18:39.707Z,100364.81
2022-12-28T17:21:10.140Z,100364.66
2022-12-28T17:23:42.804Z,100361.75
2022-12-28T17:26:11.115Z,100351.59
2022-12-28T17:28:39.137Z,100349.53
2022-12-28T17:31:08.518Z,100347.53
2022-12-28T17:33:39.776Z,100342.72
2022-12-28T17:36:10.464Z,100332.91
2022-12-28T17:38:41.947Z,100329.78
2022-12-28T17:41:16.294Z,100326.56
2022-12-28T17:43:46.563Z,100323.47
2022-12-28T17:46:15.681Z,100310.72
2022-12-28T17:48:43.906Z,100305.59
2022-12-28T17:51:13.639Z,100298.81
2022-12-28T17:53:42.745Z,100306.31
2022-12-28T17:56:30.869Z,100298.25
2022-12-28T18:08:24.481Z,100270.44
2022-12-28T18:11:06.816Z,100273.50
2022-12-28T18:13:40.039Z,100266.59
2022-12-28T18:16:09.864Z,100265.25
2022-12-28T18:18:38.727Z,100260.69
2022-12-28T18:21:19.595Z,100251.09
2022-12-28T18:23:52.565Z,100236.72
2022-12-28T18:26:26.238Z,100227.16
2022-12-28T18:28:56.640Z,100219.47
2022-12-28T18:31:25.860Z,100212.78
2022-12-28T18:33:58.238Z,100217.91
2022-12-28T18:36:29.021Z,100219.75
2022-12-28T18:39:02.896Z,100214.03
2022-12-28T18:41:34.183Z,100206.50
2022-12-28T18:44:06.093Z,100210.91
2022-12-28T18:46:35.262Z,100210.69
2022-12-28T18:49:03.981Z,100213.28
2022-12-28T18:58:46.584Z,100200.53
2022-12-28T19:01:55.373Z,100205.31
2022-12-28T19:04:07.550Z,100208.78
2022-12-28T19:06:38.068Z,100200.88
2022-12-28T19:09:07.113Z,100199.81
2022-12-28T19:11:35.384Z,100195.75
2022-12-28T19:14:05.271Z,100197.19
2022-12-28T19:16:33.506Z,100202.13
2022-12-28T19:19:04.420Z,100180.38
2022-12-28T19:21:39.932Z,100181.13
2022-12-28T19:24:12.942Z,100169.16
2022-12-28T19:26:42.736Z,100164.00
2022-12-28T19:29:18.083Z,100165.09
2022-12-28T19:31:47.970Z,100167.56
2022-12-28T19:34:16.579Z,100163.53
2022-12-28T19:36:45.551Z,100157.09
2022-12-28T19:39:16.852Z,100158.19
2022-12-28T19:41:47.482Z,100157.81
2022-12-28T19:44:20.369Z,100147.16
2022-12-28T19:46:50.487Z,100160.78
2022-12-28T19:49:19.239Z,100155.09
2022-12-28T19:51:49.056Z,100144.78
2022-12-28T19:54:19.502Z,100151.06
2022-12-28T19:56:48.785Z,100160.09
2022-12-28T19:59:22.915Z,100142.50
2022-12-28T20:01:51.557Z,100137.31
2022-12-28T20:04:20.476Z,100140.84
2022-12-28T20:06:50.887Z,100134.22
2022-12-28T20:09:19.425Z,100128.91
2022-12-28T20:11:48.491Z,100133.91
2022-12-28T20:14:23.289Z,100128.03
2022-12-28T20:16:55.084Z,100126.38
2022-12-28T20:19:25.109Z,100119.34
2022-12-28T20:21:54.788Z,100119.91
2022-12-28T20:24:27.691Z,100114.75
2022-12-28T20:27:01.436Z,100107.38
2022-12-28T20:29:30.027Z,100107.53
2022-12-28T20:32:00.255Z,100101.44
2022-12-28T20:34:28.560Z,100090.19
2022-12-28T20:36:56.547Z,100094.97
2022-12-28T20:39:24.931Z,100086.31
2022-12-28T20:42:11.473Z,100080.03
2022-12-28T20:44:40.716Z,100085.19
2022-12-28T20:47:10.347Z,100071.91
2022-12-28T20:49:38.712Z,100072.59
2022-12-28T20:52:08.841Z,100071.47
2022-12-28T20:54:39.152Z,100063.56
2022-12-28T20:57:08.858Z,100062.41
2022-12-28T20:59:36.951Z,100072.22
2022-12-28T21:02:05.007Z,100061.34
2022-12-28T21:04:38.025Z,100068.56
2022-12-28T21:07:06.179Z,100063.03
2022-12-28T21:09:34.653Z,100064.69
2022-12-28T21:12:06.572Z,100065.81
2022-12-28T21:14:36.548Z,100064.34
2022-12-28T21:17:15.787Z,100070.78
2022-12-28T21:19:57.547Z,100058.78
2022-12-28T21:22:31.402Z,100063.94
2022-12-28T21:25:02.823Z,100062.81
2022-12-28T21:27:36.214Z,100063.00
2022-12-28T21:30:05.659Z,100061.34
2022-12-28T21:32:34.431Z,100046.19
2022-12-28T21:35:05.142Z,100048.97
2022-12-28T21:37:38.659Z,100052.47
2022-12-28T21:40:14.408Z,100060.78
2022-12-28T21:42:42.829Z,100045.09
2022-12-28T21:45:16.005Z,100041.59
2022-12-28T21:47:51.812Z,100041.09
2022-12-28T21:50:22.816Z,100037.78
2022-12-28T21:52:51.184Z,100032.75
2022-12-28T21:55:39.246Z,100032.56
2022-12-28T21:58:09.004Z,100039.19
2022-12-28T22:00:55.724Z,100038.69
2022-12-28T22:03:42.472Z,100032.56
2022-12-28T22:06:16.956Z,100040.31
2022-12-28T22:09:02.839Z,100036.00
2022-12-28T22:11:49.233Z,100038.63
2022-12-28T22:14:17.698Z,100028.81
2022-12-28T22:16:46.631Z,100040.09
2022-12-28T22:19:18.760Z,100042.28
2022-12-28T22:21:51.532Z,100034.19
2022-12-28T22:24:21.348Z,100037.69
2022-12-28T22:26:50.608Z,100040.25
2022-12-28T22:29:22.319Z,100027.16
2022-12-28T22:31:54.021Z,100040.66
2022-12-28T22:34:23.581Z,100031.78
2022-12-28T22:36:56.927Z,100043.97
2022-12-28T22:39:25.633Z,100035.50
2022-12-28T22:41:54.106Z,100033.84
2022-12-28T22:44:22.543Z,100042.84
2022-12-28T22:46:52.494Z,100043.97
2022-12-28T22:49:21.388Z,100033.66
2022-12-28T22:51:51.395Z,100034.78
2022-12-28T22:54:21.260Z,100032.56
2022-12-28T22:56:51.959Z,100030.03
2022-12-28T22:59:20.684Z,100023.34
2022-12-28T23:01:51.125Z,100023.75
2022-12-28T23:04:19.950Z,100008.75
2022-12-28T23:30:17.734Z,99989.78
2022-12-28T23:33:28.191Z,99984.25
2022-12-28T23:35:56.930Z,99978.56
2022-12-28T23:38:26.415Z,99987.56
2022-12-28T23:41:16.922Z,99978.31
2022-12-28T23:43:48.488Z,99984.56
2022-12-28T23:46:17.457Z,99985.31
2022-12-28T23:48:49.510Z,99966.47
2022-12-28T23:51:20.758Z,99968.69
2022-12-28T23:53:50.705Z,99965.34
2022-12-28T23:56:19.182Z,99956.84
2022-12-28T23:58:50.940Z,99956.66
